Time;durP1;ratioP1;P1;durP2;ratioP2;P2;SDS_P1;SDS_P2;PMS_P1;PMS_P2;Temp;Humidity;BMP_temperature;BMP_pressure;BME280_temperature;BME280_humidity;BME280_pressure;Samples;Min_cycle;Max_cycle;Signal;HPM_P1;HPM_P2
2023/06/15 00:00:09;;;;;;;4.53;3.53;;;;;;;13.64;100.00;95700.94;1045495;28;20028;-73
2023/06/15 00:00:39;;;;;;;5.25;3.45;;;;;;;13.64;100.00;95706.97;1043634;28;20783;-74
2023/06/15 00:01:11;;;;;;;5.28;3.35;;;;;;;13.62;100.00;95705.72;1045942;28;20056;-73
2023/06/15 00:01:42;;;;;;;6.30;3.85;;;;;;;13.59;100.00;95699.16;1047282;28;20028;-74
2023/06/15 00:02:12;;;;;;;4.50;3.08;;;;;;;13.62;100.00;95700.44;1038282;28;20060;-73
2023/06/15 00:02:43;;;;;;;5.65;3.47;;;;;;;13.56;100.00;95693.66;1035275;28;20661;-74
2023/06/15 00:03:14;;;;;;;5.07;3.45;;;;;;;13.61;100.00;95698.84;1035087;28;20037;-74
2023/06/15 00:03:44;;;;;;;5.45;3.35;;;;;;;13.61;100.00;95693.59;1031073;28;20026;-73
2023/06/15 00:04:16;;;;;;;5.65;3.50;;;;;;;13.57;100.00;95697.84;1032176;28;20037;-73
2023/06/15 00:04:46;;;;;;;4.13;3.40;;;;;;;13.57;100.00;95698.63;1034920;28;20056;-73
2023/06/15 00:05:17;;;;;;;4.45;3.33;;;;;;;13.58;100.00;95702.06;1035312;28;20486;-74
2023/06/15 00:05:48;;;;;;;5.55;3.67;;;;;;;13.56;100.00;95699.72;1032287;28;20030;-74
2023/06/15 00:06:18;;;;;;;4.07;3.25;;;;;;;13.56;100.00;95698.94;1030199;28;20574;-73
2023/06/15 00:06:49;;;;;;;9.43;3.50;;;;;;;13.55;100.00;95702.63;1034991;28;20030;-73
2023/06/15 00:07:19;;;;;;;5.10;3.22;;;;;;;13.54;100.00;95701.06;1034953;28;20079;-73
2023/06/15 00:07:50;;;;;;;4.65;3.50;;;;;;;13.53;100.00;95699.50;1035252;28;20021;-73
2023/06/15 00:08:21;;;;;;;4.45;3.40;;;;;;;13.51;100.00;95691.84;1039266;28;20021;-73
2023/06/15 00:08:51;;;;;;;8.02;3.30;;;;;;;13.50;100.00;95695.56;1039033;28;20029;-73
2023/06/15 00:09:22;;;;;;;5.25;3.33;;;;;;;13.51;100.00;95699.75;1030830;28;20022;-73
2023/06/15 00:09:54;;;;;;;5.05;3.75;;;;;;;13.51;100.00;95702.38;1030971;28;20018;-73
2023/06/15 00:10:24;;;;;;;5.43;3.58;;;;;;;13.47;100.00;95695.34;1034778;28;20480;-73
2023/06/15 00:10:55;;;;;;;5.38;3.05;;;;;;;13.51;100.00;95701.63;1031359;28;20112;-74
2023/06/15 00:11:25;;;;;;;7.03;3.00;;;;;;;13.49;100.00;95709.81;1034450;28;20463;-73
2023/06/15 00:11:56;;;;;;;6.00;3.60;;;;;;;13.46;100.00;95704.31;1035027;28;20022;-74
2023/06/15 00:12:27;;;;;;;4.72;3.17;;;;;;;13.49;100.00;95703.75;1031652;28;20019;-73
2023/06/15 00:12:57;;;;;;;6.88;3.50;;;;;;;13.41;100.00;95692.78;1035105;28;20026;-74
2023/06/15 00:13:28;;;;;;;7.93;3.60;;;;;;;13.47;100.00;95711.94;1047428;28;20017;-73
2023/06/15 00:13:59;;;;;;;6.88;3.60;;;;;;;13.47;100.00;95704.03;1043126;28;20033;-73
2023/06/15 00:14:30;;;;;;;7.68;3.40;;;;;;;13.46;100.00;95706.97;1039284;28;20029;-73
2023/06/15 00:15:00;;;;;;;4.60;3.30;;;;;;;13.45;100.00;95714.09;1035430;28;20427;-74
2023/06/15 00:15:31;;;;;;;5.13;3.60;;;;;;;13.45;100.00;95714.09;1047401;28;20032;-73
2023/06/15 00:16:01;;;;;;;3.55;3.03;;;;;;;13.42;100.00;95715.44;1049777;28;20452;-73
2023/06/15 00:16:32;;;;;;;5.00;3.55;;;;;;;13.43;100.00;95717.00;1055712;28;20016;-73
2023/06/15 00:17:03;;;;;;;3.35;3.05;;;;;;;13.38;100.00;95709.16;1051406;28;20492;-73
2023/06/15 00:17:37;;;;;;;8.40;3.33;;;;;;;13.42;100.00;95718.06;1044147;28;20021;-73
2023/06/15 00:18:07;;;;;;;4.57;3.42;;;;;;;13.41;100.00;95718.31;1043074;28;20497;-74
2023/06/15 00:18:38;;;;;;;4.85;3.03;;;;;;;13.41;100.00;95713.06;1043682;28;20029;-73
2023/06/15 00:19:09;;;;;;;4.28;3.72;;;;;;;13.40;100.00;95714.91;1043187;28;20055;-73
2023/06/15 00:19:39;;;;;;;9.23;3.58;;;;;;;13.40;100.00;95712.28;1047118;28;20071;-73
2023/06/15 00:20:12;;;;;;;3.22;2.80;;;;;;;13.38;100.00;95714.41;1047390;28;20436;-73
2023/06/15 00:20:42;;;;;;;5.20;3.33;;;;;;;13.38;100.00;95716.25;1051301;28;20031;-73
2023/06/15 00:21:15;;;;;;;5.55;3.35;;;;;;;13.37;100.00;95717.31;1042062;28;20033;-73
2023/06/15 00:21:48;;;;;;;4.63;3.47;;;;;;;13.38;100.00;95709.16;1035178;28;20562;-73
2023/06/15 00:22:18;;;;;;;5.15;3.55;;;;;;;13.36;100.00;95715.75;1039906;28;20509;-73
2023/06/15 00:22:49;;;;;;;5.47;3.50;;;;;;;13.35;100.00;95714.97;1038954;28;20036;-73
2023/06/15 00:23:26;;;;;;;4.00;3.47;;;;;;;13.36;100.00;95715.75;1042906;28;20029;-73
2023/06/15 00:23:57;;;;;;;6.22;3.53;;;;;;;13.35;100.00;95720.25;1037494;28;20483;-73
2023/06/15 00:24:27;;;;;;;4.45;3.17;;;;;;;13.35;100.00;95712.34;1036137;28;20109;-73
2023/06/15 00:24:58;;;;;;;4.82;3.80;;;;;;;13.34;100.00;95717.88;1039772;28;20644;-73
2023/06/15 00:25:28;;;;;;;4.55;3.70;;;;;;;13.33;100.00;95709.19;1039262;28;20029;-73
2023/06/15 00:25:59;;;;;;;8.48;3.90;;;;;;;13.24;100.00;95702.97;1030917;28;20041;-73
2023/06/15 00:26:29;;;;;;;9.38;3.65;;;;;;;13.33;100.00;95721.59;1036310;28;20084;-73
2023/06/15 00:26:59;;;;;;;3.97;3.58;;;;;;;13.31;100.00;95713.97;1043227;28;20450;-73
2023/06/15 00:27:30;;;;;;;7.55;3.95;;;;;;;13.30;100.00;95711.59;1047436;28;20033;-74
2023/06/15 00:28:01;;;;;;;5.70;3.50;;;;;;;13.27;100.00;95712.94;1047356;28;20025;-74
2023/06/15 00:28:31;;;;;;;4.72;3.42;;;;;;;13.28;100.00;95711.91;1050783;28;20103;-74
2023/06/15 00:29:02;;;;;;;7.63;4.82;;;;;;;13.27;100.00;95710.31;1046972;28;20051;-74
2023/06/15 00:29:32;;;;;;;5.68;3.75;;;;;;;13.22;100.00;95710.34;1043224;28;20044;-73
2023/06/15 00:30:04;;;;;;;3.88;3.47;;;;;;;13.25;100.00;95709.81;1038662;28;20030;-74
2023/06/15 00:30:34;;;;;;;3.80;3.30;;;;;;;13.21;100.00;95708.75;1035197;28;20030;-74
2023/06/15 00:31:05;;;;;;;4.72;3.70;;;;;;;13.27;100.00;95714.78;1026162;28;20027;-73
2023/06/15 00:31:35;;;;;;;5.82;3.58;;;;;;;13.21;100.00;95709.56;1031785;28;20476;-74
2023/06/15 00:32:06;;;;;;;7.35;3.80;;;;;;;13.24;100.00;95713.50;1042998;28;20025;-74
2023/06/15 00:32:37;;;;;;;5.55;3.67;;;;;;;13.21;100.00;95720.09;1043400;28;20048;-73
2023/06/15 00:33:08;;;;;;;5.20;3.60;;;;;;;13.21;100.00;95719.28;1047131;28;20025;-74
2023/06/15 00:33:38;;;;;;;4.50;3.53;;;;;;;13.19;100.00;95718.81;1050647;28;20031;-73
2023/06/15 00:34:09;;;;;;;4.20;3.08;;;;;;;13.18;100.00;95719.88;1043155;28;20854;-73
2023/06/15 00:34:39;;;;;;;5.63;3.53;;;;;;;13.20;100.00;95717.72;1038940;28;20039;-72
2023/06/15 00:35:10;;;;;;;4.40;3.40;;;;;;;13.14;100.00;95705.66;1040948;28;20025;-73
2023/06/15 00:35:40;;;;;;;5.05;3.55;;;;;;;13.18;100.00;95715.38;1043043;28;20074;-74
2023/06/15 00:36:12;;;;;;;4.35;3.53;;;;;;;13.19;100.00;95718.81;1040944;28;20028;-73
2023/06/15 00:36:42;;;;;;;6.32;4.68;;;;;;;13.17;100.00;95713.03;1035384;28;20101;-74
2023/06/15 00:37:13;;;;;;;7.55;4.03;;;;;;;13.13;100.00;95704.09;1035214;28;20491;-73
2023/06/15 00:37:43;;;;;;;5.22;3.60;;;;;;;13.18;100.00;95715.38;1038831;28;20507;-73
2023/06/15 00:38:14;;;;;;;5.72;3.53;;;;;;;13.18;100.00;95715.38;1043041;28;20091;-73
2023/06/15 00:38:45;;;;;;;6.55;3.88;;;;;;;13.17;100.00;95708.53;1047541;28;20101;-74
2023/06/15 00:39:15;;;;;;;7.85;4.38;;;;;;;13.17;100.00;95719.06;1042939;28;20059;-73
2023/06/15 00:39:45;;;;;;;4.30;3.20;;;;;;;13.19;100.00;95710.91;1043144;28;20041;-73
2023/06/15 00:40:16;;;;;;;3.80;3.38;;;;;;;13.17;100.00;95713.81;1040928;28;20033;-73
2023/06/15 00:40:47;;;;;;;3.85;3.30;;;;;;;13.18;100.00;95714.63;1039051;28;20072;-73
2023/06/15 00:41:18;;;;;;;6.93;3.60;;;;;;;13.17;100.00;95716.44;1042402;28;20020;-73
2023/06/15 00:41:48;;;;;;;7.18;3.72;;;;;;;13.17;100.00;95719.06;1043097;28;20818;-74
2023/06/15 00:42:19;;;;;;;5.20;3.75;;;;;;;13.17;100.00;95719.06;1043065;28;20029;-74
2023/06/15 00:42:49;;;;;;;5.10;3.50;;;;;;;13.18;100.00;95719.88;1039065;28;20068;-74
2023/06/15 00:43:20;;;;;;;5.10;3.53;;;;;;;13.18;100.00;95709.34;1043104;28;20033;-75
2023/06/15 00:43:50;;;;;;;5.00;4.07;;;;;;;13.18;100.00;95719.88;1046419;28;20492;-74
2023/06/15 00:44:20;;;;;;;6.57;3.83;;;;;;;13.19;100.00;95719.59;1047142;28;20410;-73
2023/06/15 00:44:51;;;;;;;7.95;3.60;;;;;;;13.20;100.00;95717.72;1049688;28;20035;-73
2023/06/15 00:45:21;;;;;;;7.38;3.70;;;;;;;13.20;100.00;95717.72;1044953;28;20061;-73
2023/06/15 00:45:52;;;;;;;4.80;3.70;;;;;;;13.18;100.00;95719.88;1047194;28;20037;-74
2023/06/15 00:46:22;;;;;;;9.73;3.90;;;;;;;13.21;100.00;95721.94;1038787;28;20044;-73
2023/06/15 00:46:53;;;;;;;4.75;4.03;;;;;;;13.19;100.00;95719.59;1035362;28;20038;-73
2023/06/15 00:47:23;;;;;;;8.30;3.53;;;;;;;13.19;100.00;95718.81;1038969;28;20103;-73
2023/06/15 00:47:54;;;;;;;5.97;3.40;;;;;;;13.24;100.00;95723.22;1030874;28;20034;-74
2023/06/15 00:48:24;;;;;;;4.13;3.55;;;;;;;13.18;100.00;95715.38;1038974;28;20716;-73
2023/06/15 00:48:55;;;;;;;6.90;3.47;;;;;;;13.24;100.00;95721.41;1038947;28;20030;-73
2023/06/15 00:49:26;;;;;;;5.68;3.83;;;;;;;13.23;100.00;95716.41;1043175;28;20118;-73
2023/06/15 00:49:57;;;;;;;5.38;3.55;;;;;;;13.25;100.00;95720.34;1034938;28;20523;-73
2023/06/15 00:50:31;;;;;;;4.20;3.80;;;;;;;13.23;100.00;95716.41;1040983;28;20025;-73
2023/06/15 00:51:01;;;;;;;4.68;3.72;;;;;;;13.24;100.00;95726.69;1034218;28;20113;-73
2023/06/15 00:51:32;;;;;;;5.13;3.58;;;;;;;13.24;100.00;95723.22;1038911;28;20037;-73
2023/06/15 00:52:03;;;;;;;9.27;4.15;;;;;;;13.27;100.00;95723.47;1045822;28;20023;-73
2023/06/15 00:52:33;;;;;;;4.97;3.72;;;;;;;13.29;100.00;95725.84;1043149;28;20032;-74
2023/06/15 00:53:05;;;;;;;6.22;4.10;;;;;;;13.25;100.00;95716.94;1043079;28;20033;-73
2023/06/15 00:53:37;;;;;;;5.28;3.67;;;;;;;13.24;100.00;95717.97;1042908;28;20036;-73
2023/06/15 00:54:08;;;;;;;5.97;3.72;;;;;;;13.30;100.00;95725.56;1039252;28;20021;-73
2023/06/15 00:54:40;;;;;;;6.45;3.97;;;;;;;13.31;100.00;95724.50;1038956;28;20049;-73
2023/06/15 00:55:12;;;;;;;5.05;3.78;;;;;;;13.32;100.00;95723.44;1030840;28;20577;-74
2023/06/15 00:55:42;;;;;;;5.80;3.78;;;;;;;13.33;100.00;95732.13;1037807;28;20085;-74
2023/06/15 00:56:13;;;;;;;6.05;3.72;;;;;;;13.34;100.00;95723.94;1038764;28;20705;-74
2023/06/15 00:56:43;;;;;;;4.88;4.00;;;;;;;13.34;100.00;95723.16;1043033;28;20044;-73
2023/06/15 00:57:14;;;;;;;6.43;4.18;;;;;;;13.34;100.00;95726.56;1037211;28;20162;-73
2023/06/15 00:57:49;;;;;;;5.57;4.53;;;;;;;13.33;100.00;95718.94;1034630;28;20058;-73
2023/06/15 00:58:19;;;;;;;6.72;3.60;;;;;;;13.35;100.00;95728.16;1039462;28;20029;-74
2023/06/15 00:58:50;;;;;;;6.88;3.83;;;;;;;13.36;100.00;95721.81;1034754;28;20018;-73
2023/06/15 00:59:20;;;;;;;5.22;3.85;;;;;;;13.37;100.00;95720.75;1030692;28;20015;-74
2023/06/15 00:59:51;;;;;;;4.60;3.47;;;;;;;13.33;100.00;95718.94;1034845;28;20125;-73
2023/06/15 01:00:21;;;;;;;4.15;3.72;;;;;;;13.36;100.00;95715.75;1042855;28;20079;-73
2023/06/15 01:00:53;;;;;;;5.28;3.75;;;;;;;13.37;100.00;95722.59;1035046;28;20044;-73
2023/06/15 01:01:24;;;;;;;5.97;3.80;;;;;;;13.33;100.00;95717.09;1034106;28;20049;-73
2023/06/15 01:01:54;;;;;;;4.93;3.83;;;;;;;13.25;100.00;95709.03;1030863;28;20683;-73
2023/06/15 01:02:25;;;;;;;4.65;3.78;;;;;;;13.40;100.00;95725.44;1041029;28;20021;-74
2023/06/15 01:02:56;;;;;;;5.50;3.78;;;;;;;13.42;100.00;95730.47;1047170;28;20009;-73
2023/06/15 01:03:26;;;;;;;5.50;3.65;;;;;;;13.42;100.00;95722.56;1043096;28;20037;-74
2023/06/15 01:03:59;;;;;;;4.53;3.95;;;;;;;13.42;100.00;95725.97;1042739;28;20024;-74
2023/06/15 01:04:30;;;;;;;7.38;3.75;;;;;;;13.42;100.00;95725.19;1038981;28;20820;-73
2023/06/15 01:05:00;;;;;;;3.90;3.50;;;;;;;13.42;100.00;95727.81;1046967;28;20115;-73
2023/06/15 01:05:34;;;;;;;4.78;3.45;;;;;;;13.42;100.00;95720.69;1047946;28;20025;-74
2023/06/15 01:06:13;;;;;;;8.30;3.92;;;;;;;13.43;100.00;95729.38;1053750;28;20485;-73
2023/06/15 01:06:51;;;;;;;5.55;3.78;;;;;;;13.42;100.00;95725.97;1045377;28;20043;-74
2023/06/15 01:07:27;;;;;;;4.82;3.75;;;;;;;13.39;100.00;95726.53;1035746;28;20030;-74
2023/06/15 01:08:01;;;;;;;5.15;3.90;;;;;;;13.41;100.00;95728.88;1034827;28;20020;-72
2023/06/15 01:08:32;;;;;;;7.20;3.90;;;;;;;13.39;100.00;95723.09;1033083;28;20519;-73
2023/06/15 01:09:03;;;;;;;4.47;3.47;;;;;;;13.34;100.00;95716.03;1039743;28;20021;-73
2023/06/15 01:09:35;;;;;;;5.18;4.00;;;;;;;13.39;100.00;95726.53;1038908;28;20021;-73
2023/06/15 01:10:07;;;;;;;4.63;3.72;;;;;;;13.35;100.00;95720.25;1030871;28;20526;-75
2023/06/15 01:10:37;;;;;;;4.38;3.70;;;;;;;13.30;100.00;95717.66;1038621;28;20083;-73
2023/06/15 01:11:08;;;;;;;9.82;3.42;;;;;;;13.39;100.00;95725.75;1038305;28;20014;-74
2023/06/15 01:11:39;;;;;;;3.92;3.50;;;;;;;13.32;100.00;95714.75;1038701;28;20028;-74
2023/06/15 01:12:14;;;;;;;6.78;3.92;;;;;;;13.34;100.00;95718.66;1030664;28;20029;-73
2023/06/15 01:12:45;;;;;;;4.22;3.63;;;;;;;13.37;100.00;95723.38;1035091;28;20026;-74
2023/06/15 01:13:19;;;;;;;6.38;3.50;;;;;;;13.33;100.00;95717.09;1034762;28;20045;-74
2023/06/15 01:13:49;;;;;;;4.43;3.70;;;;;;;13.32;100.00;95720.81;1035967;28;20120;-74
2023/06/15 01:14:21;;;;;;;7.32;3.67;;;;;;;13.32;100.00;95717.41;1042699;28;20013;-74
2023/06/15 01:14:52;;;;;;;4.47;3.42;;;;;;;13.35;100.00;95724.75;1038814;28;20032;-73
2023/06/15 01:15:23;;;;;;;5.90;3.78;;;;;;;13.30;100.00;95714.25;1043002;28;20013;-74
2023/06/15 01:15:55;;;;;;;7.28;4.25;;;;;;;13.34;100.00;95717.88;1042647;28;20013;-73
2023/06/15 01:16:28;;;;;;;7.38;3.80;;;;;;;13.29;100.00;95710.81;1030638;28;20029;-73
2023/06/15 01:17:05;;;;;;;4.28;3.75;;;;;;;13.27;100.00;95712.94;1042694;28;20021;-73
2023/06/15 01:17:37;;;;;;;4.22;3.58;;;;;;;13.32;100.00;95720.03;1042890;28;20020;-73
2023/06/15 01:18:08;;;;;;;4.28;3.33;;;;;;;13.25;100.00;95717.72;1037740;28;20462;-73
2023/06/15 01:18:46;;;;;;;4.60;3.60;;;;;;;13.28;100.00;95708.44;1042921;28;20025;-73
2023/06/15 01:19:34;;;;;;;6.68;3.63;;;;;;;13.24;100.00;95718.78;1038746;28;20191;-73
2023/06/15 01:20:05;;;;;;;4.82;3.33;;;;;;;13.28;100.00;95719.00;1038501;28;20022;-74
2023/06/15 01:20:41;;;;;;;5.15;3.60;;;;;;;13.26;100.00;95721.91;1030260;28;20026;-74
2023/06/15 01:21:12;;;;;;;4.95;4.25;;;;;;;13.26;100.00;95721.91;1034040;28;20033;-73
2023/06/15 01:21:42;;;;;;;7.40;3.65;;;;;;;13.25;100.00;95722.22;1042754;28;20021;-74
2023/06/15 01:22:29;;;;;;;4.18;3.22;;;;;;;13.20;100.00;95713.25;1043899;28;20029;-73
2023/06/15 01:23:01;;;;;;;8.07;4.22;;;;;;;13.23;100.00;95722.44;1034718;28;20097;-73
2023/06/15 01:24:08;;;;;;;7.95;3.78;;;;;;;13.20;100.00;95721.16;1037397;28;20045;-74
2023/06/15 01:24:39;;;;;;;9.25;4.45;;;;;;;13.20;100.00;95717.72;1041350;28;20025;-73
2023/06/15 01:25:29;;;;;;;5.10;3.50;;;;;;;13.16;100.00;95711.47;1038410;28;20411;-73
2023/06/15 01:26:00;;;;;;;4.68;3.50;;;;;;;13.16;100.00;95717.50;1038820;28;20626;-74
2023/06/15 01:26:32;;;;;;;6.68;3.83;;;;;;;13.14;100.00;95710.94;1036494;28;20128;-73
2023/06/15 01:27:04;;;;;;;5.40;4.03;;;;;;;13.13;100.00;95715.44;1044072;28;20066;-73
2023/06/15 01:27:35;;;;;;;5.13;3.65;;;;;;;13.08;100.00;95707.59;1042906;28;20033;-73
2023/06/15 01:28:06;;;;;;;5.10;3.75;;;;;;;13.12;100.00;95715.72;1038815;28;20033;-73
2023/06/15 01:28:45;;;;;;;5.90;4.00;;;;;;;13.10;100.00;95710.72;1030645;28;20392;-73
2023/06/15 01:29:16;;;;;;;4.47;3.50;;;;;;;13.10;100.00;95717.84;1036013;28;20033;-74
2023/06/15 01:29:49;;;;;;;4.93;3.72;;;;;;;13.06;100.00;95701.81;1034646;28;20061;-73
2023/06/15 01:30:20;;;;;;;4.85;3.60;;;;;;;13.09;100.00;95706.50;1030605;28;20116;-73
2023/06/15 01:30:51;;;;;;;4.57;3.40;;;;;;;13.08;100.00;95715.50;1030650;28;20913;-71
2023/06/15 01:31:21;;;;;;;4.90;3.53;;;;;;;13.07;100.00;95713.13;1033904;28;20030;-73
2023/06/15 01:31:52;;;;;;;4.65;3.63;;;;;;;13.05;100.00;95710.00;1037635;28;20021;-74
2023/06/15 01:32:22;;;;;;;7.38;3.90;;;;;;;13.02;100.00;95710.56;1038816;28;20525;-73
2023/06/15 01:32:53;;;;;;;6.20;3.92;;;;;;;13.02;100.00;95715.81;1038766;28;20048;-74
2023/06/15 01:33:24;;;;;;;5.53;3.72;;;;;;;13.02;100.00;95715.81;1040095;28;20033;-74
2023/06/15 01:33:55;;;;;;;6.00;3.60;;;;;;;13.01;100.00;95711.59;1051239;28;20063;-73
2023/06/15 01:34:26;;;;;;;6.70;4.30;;;;;;;13.01;100.00;95712.41;1050939;28;20402;-73
2023/06/15 01:34:56;;;;;;;4.85;3.95;;;;;;;13.00;100.00;95715.31;1051119;28;20035;-73
2023/06/15 01:35:27;;;;;;;6.95;4.10;;;;;;;12.93;100.00;95702.47;1051186;28;20067;-73
2023/06/15 01:35:58;;;;;;;4.82;3.70;;;;;;;12.90;100.00;95703.78;1046827;28;20036;-73
2023/06/15 01:36:28;;;;;;;5.88;3.55;;;;;;;12.95;100.00;95711.66;1038831;28;20036;-73
2023/06/15 01:36:59;;;;;;;8.98;3.55;;;;;;;12.94;100.00;95710.09;1041579;28;20918;-73
2023/06/15 01:37:29;;;;;;;6.38;3.50;;;;;;;12.92;100.00;95708.78;1042871;28;20032;-73
2023/06/15 01:38:00;;;;;;;4.85;3.30;;;;;;;12.92;100.00;95712.22;1038861;28;20077;-73
2023/06/15 01:38:30;;;;;;;4.60;3.55;;;;;;;12.92;100.00;95708.78;1038590;28;20048;-73
2023/06/15 01:39:01;;;;;;;5.60;4.03;;;;;;;12.88;100.00;95703.31;1038656;28;20018;-71
2023/06/15 01:39:31;;;;;;;4.40;3.40;;;;;;;12.93;100.00;95711.13;1034730;28;20033;-73
2023/06/15 01:40:02;;;;;;;5.18;3.33;;;;;;;12.87;100.00;95704.34;1034408;28;20025;-73
2023/06/15 01:40:35;;;;;;;5.72;3.95;;;;;;;12.91;100.00;95713.28;1038807;28;20021;-73
2023/06/15 01:41:06;;;;;;;4.22;3.78;;;;;;;12.87;100.00;95703.56;1038125;28;20036;-73
2023/06/15 01:41:37;;;;;;;6.72;3.67;;;;;;;12.92;100.00;95709.56;1038665;28;20021;-73
2023/06/15 01:42:07;;;;;;;5.75;3.40;;;;;;;12.84;100.00;95699.63;1042550;28;20021;-74
2023/06/15 01:42:39;;;;;;;5.25;3.40;;;;;;;12.88;100.00;95705.16;1038783;28;20055;-73
2023/06/15 01:43:13;;;;;;;6.28;3.92;;;;;;;12.84;100.00;95702.25;1030666;28;20054;-73
2023/06/15 01:43:43;;;;;;;4.93;3.63;;;;;;;12.84;100.00;95699.63;1038536;28;20028;-73
2023/06/15 01:44:14;;;;;;;4.65;3.60;;;;;;;12.76;100.00;95697.59;1046892;28;20020;-73
2023/06/15 01:44:44;;;;;;;7.13;3.78;;;;;;;12.81;100.00;95700.22;1038737;28;20483;-73
2023/06/15 01:45:15;;;;;;;7.03;4.03;;;;;;;12.84;100.00;95698.84;1038677;28;20079;-73
2023/06/15 01:45:45;;;;;;;13.88;3.95;;;;;;;12.84;100.00;95710.16;1030493;28;20049;-73
2023/06/15 01:46:16;;;;;;;4.10;3.65;;;;;;;12.84;100.00;95709.38;1030304;28;20037;-73
2023/06/15 01:46:46;;;;;;;4.25;3.53;;;;;;;12.79;100.00;95702.31;1034617;28;20025;-73
2023/06/15 01:47:17;;;;;;;4.60;3.53;;;;;;;12.83;100.00;95707.81;1030589;28;20022;-72
2023/06/15 01:47:48;;;;;;;4.40;3.58;;;;;;;12.80;100.00;95709.16;1026657;28;20872;-73
2023/06/15 01:48:18;;;;;;;5.28;3.78;;;;;;;12.80;100.00;95703.88;1034488;28;20029;-73
2023/06/15 01:48:49;;;;;;;3.80;3.45;;;;;;;12.80;100.00;95714.41;1034682;28;20025;-73
2023/06/15 01:49:19;;;;;;;5.15;3.97;;;;;;;12.79;100.00;95707.59;1034614;28;20369;-73
2023/06/15 01:49:50;;;;;;;6.30;3.47;;;;;;;12.77;100.00;95701.81;1038524;28;20097;-73
2023/06/15 01:50:21;;;;;;;4.55;3.72;;;;;;;12.78;100.00;95711.28;1035312;28;20033;-73
2023/06/15 01:50:51;;;;;;;5.90;4.10;;;;;;;12.73;100.00;95698.94;1038692;28;20025;-73
2023/06/15 01:51:22;;;;;;;4.38;3.63;;;;;;;12.76;100.00;95710.78;1029734;28;20023;-73
2023/06/15 01:51:53;;;;;;;5.25;4.07;;;;;;;12.70;100.00;95693.44;1034548;28;20095;-74
2023/06/15 01:52:23;;;;;;;14.00;4.13;;;;;;;12.67;100.00;95694.00;1030312;28;20022;-73
2023/06/15 01:52:53;;;;;;;5.82;3.67;;;;;;;12.69;100.00;95702.41;1030536;28;20073;-73
2023/06/15 01:53:24;;;;;;;6.32;4.20;;;;;;;12.74;100.00;95707.63;1034669;28;20789;-73
2023/06/15 01:53:54;;;;;;;7.22;3.90;;;;;;;12.73;100.00;95708.69;1034449;28;20034;-74
2023/06/15 01:54:25;;;;;;;4.63;3.72;;;;;;;12.72;100.00;95704.50;1030629;28;20484;-73
2023/06/15 01:54:56;;;;;;;6.50;4.00;;;;;;;12.68;100.00;95709.53;1030608;28;20021;-73
2023/06/15 01:55:26;;;;;;;6.60;4.00;;;;;;;12.68;100.00;95703.47;1034733;28;20061;-73
2023/06/15 01:55:57;;;;;;;4.35;3.70;;;;;;;12.70;100.00;95709.25;1042762;28;20028;-73
2023/06/15 01:56:28;;;;;;;6.93;4.25;;;;;;;12.72;100.00;95712.41;1042700;28;20033;-73
2023/06/15 01:56:58;;;;;;;4.15;3.60;;;;;;;12.68;100.00;95706.91;1034636;28;20592;-73
2023/06/15 01:57:29;;;;;;;8.68;3.80;;;;;;;12.72;100.00;95712.41;1038237;28;20029;-73
2023/06/15 01:57:59;;;;;;;6.10;4.07;;;;;;;12.72;100.00;95712.41;1042605;28;20021;-73
2023/06/15 01:58:30;;;;;;;8.55;3.90;;;;;;;12.70;100.00;95714.50;1042909;28;20037;-73
2023/06/15 01:59:00;;;;;;;8.55;3.80;;;;;;;12.70;100.00;95706.59;1045029;28;20025;-73
2023/06/15 01:59:31;;;;;;;6.07;4.05;;;;;;;12.70;100.00;95709.25;1046859;28;20040;-72
2023/06/15 02:00:03;;;;;;;5.30;4.03;;;;;;;12.69;100.00;95712.94;1046831;28;20103;-73
2023/06/15 02:00:33;;;;;;;4.38;3.95;;;;;;;12.65;100.00;95701.41;1043731;28;20032;-73
2023/06/15 02:01:04;;;;;;;4.00;3.53;;;;;;;12.61;100.00;95700.34;1038321;28;20116;-73
2023/06/15 02:01:34;;;;;;;6.70;3.58;;;;;;;12.67;100.00;95712.41;1034251;28;20654;-73
2023/06/15 02:02:05;;;;;;;4.88;4.05;;;;;;;12.67;100.00;95709.78;1030576;28;20081;-73
2023/06/15 02:02:35;;;;;;;5.00;4.10;;;;;;;12.64;100.00;95710.34;1034429;28;20030;-74
2023/06/15 02:03:06;;;;;;;7.47;3.90;;;;;;;12.64;100.00;95711.16;1047136;28;20476;-74
2023/06/15 02:03:36;;;;;;;7.20;4.05;;;;;;;12.62;100.00;95709.84;1051023;28;20031;-72
2023/06/15 02:04:07;;;;;;;5.60;4.43;;;;;;;12.59;100.00;95707.75;1042736;28;20059;-73
2023/06/15 02:04:37;;;;;;;6.78;3.90;;;;;;;12.64;100.00;95710.34;1038250;28;20091;-74
2023/06/15 02:05:08;;;;;;;4.88;3.88;;;;;;;12.62;100.00;95713.25;1030501;28;20034;-73
2023/06/15 02:05:40;;;;;;;4.38;3.75;;;;;;;12.63;100.00;95714.81;1035804;28;20738;-73
2023/06/15 02:06:10;;;;;;;5.38;3.95;;;;;;;12.62;100.00;95709.84;1051061;28;20028;-73
2023/06/15 02:06:41;;;;;;;4.20;3.67;;;;;;;12.63;100.00;95714.81;1038599;28;20504;-73
2023/06/15 02:07:11;;;;;;;7.13;4.07;;;;;;;12.62;100.00;95713.25;1038866;28;20033;-73
2023/06/15 02:07:41;;;;;;;7.10;3.83;;;;;;;12.61;100.00;95710.88;1034100;28;20030;-73
2023/06/15 02:08:12;;;;;;;6.32;3.70;;;;;;;12.62;100.00;95717.75;1030596;28;20515;-73
2023/06/15 02:08:43;;;;;;;5.10;4.10;;;;;;;12.55;100.00;95706.75;1030573;28;20073;-74
2023/06/15 02:09:13;;;;;;;5.57;4.25;;;;;;;12.59;100.00;95713.81;1040952;28;20136;-72
2023/06/15 02:09:43;;;;;;;5.07;4.00;;;;;;;12.60;100.00;95719.84;1046795;28;20039;-73
2023/06/15 02:10:15;;;;;;;6.43;3.97;;;;;;;12.58;100.00;95714.09;1046960;28;20032;-74
2023/06/15 02:10:45;;;;;;;5.57;4.00;;;;;;;12.54;100.00;95710.41;1047006;28;20398;-73
2023/06/15 02:11:18;;;;;;;8.32;3.92;;;;;;;12.57;100.00;95717.78;1046185;28;20028;-73
2023/06/15 02:11:49;;;;;;;4.85;3.90;;;;;;;12.57;100.00;95712.50;1047108;28;20028;-73
2023/06/15 02:12:19;;;;;;;6.38;4.30;;;;;;;12.57;100.00;95720.41;1042711;28;20080;-74
2023/06/15 02:12:50;;;;;;;3.90;3.58;;;;;;;12.50;100.00;95705.69;1039304;28;20030;-74
2023/06/15 02:13:20;;;;;;;4.80;3.63;;;;;;;12.56;100.00;95713.56;1042700;28;20040;-73
2023/06/15 02:13:52;;;;;;;6.60;4.00;;;;;;;12.55;100.00;95714.66;1047005;28;20036;-74
2023/06/15 02:14:23;;;;;;;6.15;4.28;;;;;;;12.54;100.00;95718.31;1047811;28;20103;-74
2023/06/15 02:14:54;;;;;;;4.88;3.53;;;;;;;12.53;100.00;95714.13;1043477;28;20766;-73
2023/06/15 02:15:24;;;;;;;5.82;4.10;;;;;;;12.53;100.00;95716.75;1038133;28;20080;-73
2023/06/15 02:15:55;;;;;;;6.80;4.50;;;;;;;12.53;100.00;95719.38;1035945;28;20026;-73
2023/06/15 02:16:26;;;;;;;6.45;4.13;;;;;;;12.51;100.00;95719.66;1038393;28;20068;-74
2023/06/15 02:16:58;;;;;;;6.43;3.97;;;;;;;12.50;100.00;95721.50;1043089;28;20074;-73
2023/06/15 02:17:38;;;;;;;5.80;3.83;;;;;;;12.45;100.00;95713.66;1054615;28;20028;-73
2023/06/15 02:18:15;;;;;;;6.28;3.78;;;;;;;12.50;100.00;95710.97;1048738;28;20028;-74
2023/06/15 02:18:47;;;;;;;6.25;3.88;;;;;;;12.45;100.00;95716.28;1050999;28;20032;-74
2023/06/15 02:19:21;;;;;;;4.65;4.05;;;;;;;12.48;100.00;95712.31;1034387;28;20113;-73
2023/06/15 02:19:51;;;;;;;5.60;4.18;;;;;;;12.46;100.00;95715.22;1038718;28;20264;-74
2023/06/15 02:20:21;;;;;;;4.72;4.05;;;;;;;12.45;100.00;95715.50;1038534;28;20039;-73
2023/06/15 02:20:52;;;;;;;4.70;3.85;;;;;;;12.45;100.00;95720.75;1039382;28;20040;-73
2023/06/15 02:21:22;;;;;;;5.10;4.22;;;;;;;12.43;100.00;95715.75;1046088;28;20093;-73
2023/06/15 02:21:53;;;;;;;4.35;3.95;;;;;;;12.43;100.00;95714.97;1042575;28;20051;-74
2023/06/15 02:22:24;;;;;;;5.47;3.97;;;;;;;12.41;100.00;95723.16;1038885;28;20030;-73
2023/06/15 02:22:57;;;;;;;5.80;3.60;;;;;;;12.35;100.00;95708.47;1043145;28;20044;-73
2023/06/15 02:23:27;;;;;;;5.20;4.15;;;;;;;12.35;100.00;95713.72;1045976;28;20514;-74
2023/06/15 02:23:58;;;;;;;8.35;4.50;;;;;;;12.39;100.00;95720.00;1046082;28;20028;-73
2023/06/15 02:24:28;;;;;;;6.28;4.10;;;;;;;12.39;100.00;95716.59;1047216;28;20087;-73
2023/06/15 02:24:58;;;;;;;5.85;3.90;;;;;;;12.37;100.00;95716.84;1040324;28;20030;-73
2023/06/15 02:25:30;;;;;;;4.60;3.83;;;;;;;12.37;100.00;95716.84;1046950;28;20029;-73
2023/06/15 02:26:00;;;;;;;5.93;3.90;;;;;;;12.37;100.00;95718.69;1046822;28;20032;-71